Time;durP1;ratioP1;P1;durP2;ratioP2;P2;SDS_P1;SDS_P2;PMS_P1;PMS_P2;Temp;Humidity;BMP_temperature;BMP_pressure;BME280_temperature;BME280_humidity;BME280_pressure;Samples;Min_cycle;Max_cycle;Signal;HPM_P1;HPM_P2
2022/07/12 00:00:20;;;;;;;6.90;3.80;;;;;;;18.81;64.42;102341.59;5084154;28;20013;-73
2022/07/12 00:02:45;;;;;;;5.68;3.80;;;;;;;18.78;64.33;102340.16;5094922;28;20032;-73
2022/07/12 00:05:10;;;;;;;5.00;3.85;;;;;;;18.73;64.53;102334.50;5086753;28;20479;-73
2022/07/12 00:07:35;;;;;;;4.28;3.70;;;;;;;18.72;64.39;102341.25;5081381;28;20033;-73
2022/07/12 00:10:01;;;;;;;4.03;3.72;;;;;;;18.73;64.72;102336.47;5091692;28;20051;-73
2022/07/12 00:12:26;;;;;;;4.15;3.75;;;;;;;18.76;64.73;102324.69;5093892;28;20111;-73
2022/07/12 00:14:51;;;;;;;5.47;4.00;;;;;;;18.75;64.78;102323.00;5095449;28;20069;-72
2022/07/12 00:17:16;;;;;;;5.50;3.80;;;;;;;18.73;64.72;102317.63;5103442;28;20040;-73
2022/07/12 00:19:42;;;;;;;5.55;4.38;;;;;;;18.68;64.92;102317.59;5093313;28;20032;-73
2022/07/12 00:22:07;;;;;;;4.65;3.88;;;;;;;18.65;65.10;102316.16;5078051;28;20020;-73
2022/07/12 00:24:33;;;;;;;4.10;3.60;;;;;;;18.61;65.21;102314.16;5096597;28;20375;-73
2022/07/12 00:26:58;;;;;;;4.22;3.83;;;;;;;18.62;65.14;102313.88;5095780;28;20024;-73
2022/07/12 00:29:23;;;;;;;4.68;4.10;;;;;;;18.61;65.18;102315.00;5093035;28;20028;-73
2022/07/12 00:31:48;;;;;;;4.50;4.00;;;;;;;18.57;64.62;102316.66;5085871;28;20054;-73
2022/07/12 00:34:14;;;;;;;7.03;4.22;;;;;;;18.53;64.82;102323.94;5091991;28;20024;-73
2022/07/12 00:36:39;;;;;;;4.82;4.15;;;;;;;18.55;64.86;102320.84;5083715;28;20464;-72
2022/07/12 00:39:04;;;;;;;5.00;4.05;;;;;;;18.50;64.86;102324.47;5091231;28;20028;-72
2022/07/12 00:41:30;;;;;;;5.75;4.10;;;;;;;18.49;64.63;102321.97;5091439;28;20039;-73
2022/07/12 00:43:55;;;;;;;4.53;4.13;;;;;;;18.44;64.92;102316.31;5091047;28;20032;-73
2022/07/12 00:46:23;;;;;;;6.63;3.90;;;;;;;18.45;64.60;102320.81;5078181;28;20025;-73
2022/07/12 00:48:48;;;;;;;4.35;3.90;;;;;;;18.40;64.53;102314.03;5093423;28;20110;-73
2022/07/12 00:51:14;;;;;;;6.45;4.22;;;;;;;18.40;64.40;102327.25;5084925;28;20033;-73
2022/07/12 00:53:39;;;;;;;4.85;4.30;;;;;;;18.36;64.54;102318.50;5087030;28;20032;-73
2022/07/12 00:56:05;;;;;;;5.20;4.60;;;;;;;18.36;64.74;102314.84;5078857;28;20043;-73
2022/07/12 00:58:31;;;;;;;5.07;4.10;;;;;;;18.32;64.58;102316.50;5094825;28;20127;-73
2022/07/12 01:00:57;;;;;;;5.07;4.63;;;;;;;18.27;64.57;102314.47;5091055;28;20103;-73
2022/07/12 01:03:22;;;;;;;5.68;4.35;;;;;;;18.30;64.69;102316.75;5094297;28;20069;-73
2022/07/12 01:05:48;;;;;;;4.53;4.10;;;;;;;18.28;64.63;102318.16;5090962;28;20032;-72
2022/07/12 01:08:14;;;;;;;5.03;4.40;;;;;;;18.21;65.19;102312.75;5087859;28;20037;-73
2022/07/12 01:10:40;;;;;;;5.45;3.92;;;;;;;18.24;64.99;102317.00;5094197;28;20039;-73
2022/07/12 01:13:06;;;;;;;5.18;4.13;;;;;;;18.25;64.66;102318.69;5093088;28;20020;-73
2022/07/12 01:15:32;;;;;;;5.72;3.83;;;;;;;18.22;64.86;102322.03;5082943;28;20055;-73
2022/07/12 01:17:59;;;;;;;5.22;3.80;;;;;;;18.22;65.10;102317.25;5090223;28;20023;-72
2022/07/12 01:20:25;;;;;;;4.55;3.72;;;;;;;18.20;65.02;102322.31;5112644;28;20422;-73
2022/07/12 01:22:53;;;;;;;4.18;3.80;;;;;;;18.13;64.74;102322.53;5103874;28;20016;-73
2022/07/12 01:25:19;;;;;;;4.70;3.88;;;;;;;18.10;64.85;102327.84;5092175;28;20017;-73
2022/07/12 01:27:44;;;;;;;7.63;4.20;;;;;;;18.08;65.04;102325.31;5092479;28;20485;-72
2022/07/12 01:30:10;;;;;;;5.53;3.85;;;;;;;18.10;65.04;102330.66;5095589;28;20470;-72
2022/07/12 01:32:35;;;;;;;4.93;3.83;;;;;;;18.12;65.08;102331.25;5084669;28;20039;-72
2022/07/12 01:35:06;;;;;;;4.80;4.15;;;;;;;18.07;64.99;102325.56;5095160;28;20031;-72
2022/07/12 01:37:38;;;;;;;4.93;4.10;;;;;;;18.04;65.02;102329.78;5091299;28;20135;-73
2022/07/12 01:40:06;;;;;;;8.27;3.83;;;;;;;18.05;65.38;102330.63;5094437;28;20020;-72
2022/07/12 01:42:32;;;;;;;4.95;4.10;;;;;;;17.99;65.50;102335.31;5087036;28;20069;-72
2022/07/12 01:44:57;;;;;;;4.47;4.07;;;;;;;17.98;65.72;102333.63;5093921;28;20024;-72
2022/07/12 01:47:25;;;;;;;6.70;4.30;;;;;;;17.96;65.19;102335.00;5083620;28;20111;-73
2022/07/12 01:49:50;;;;;;;5.60;3.88;;;;;;;17.94;65.40;102331.63;5086912;28;20465;-72
2022/07/12 01:52:17;;;;;;;4.20;3.90;;;;;;;17.89;65.50;102324.00;5082030;28;20059;-72
2022/07/12 01:54:42;;;;;;;5.13;3.97;;;;;;;17.87;65.73;102327.06;5094932;28;20077;-73
2022/07/12 01:57:08;;;;;;;4.63;4.18;;;;;;;17.91;65.45;102321.75;5089511;28;20375;-72
2022/07/12 01:59:35;;;;;;;6.45;4.30;;;;;;;17.92;65.22;102323.47;5101683;28;20043;-73
2022/07/12 02:02:01;;;;;;;4.20;3.60;;;;;;;17.85;65.06;102320.88;5092399;28;20036;-72
2022/07/12 02:04:27;;;;;;;4.05;3.63;;;;;;;17.82;64.92;102327.03;5094433;28;20348;-73
2022/07/12 02:06:52;;;;;;;4.32;3.88;;;;;;;17.88;65.16;102319.47;5085904;28;20039;-73
2022/07/12 02:09:18;;;;;;;7.60;4.28;;;;;;;17.82;65.39;102314.94;5092016;28;20099;-73
2022/07/12 02:11:46;;;;;;;5.38;4.05;;;;;;;17.78;65.21;102323.06;5090832;28;20032;-72
2022/07/12 02:14:12;;;;;;;5.35;4.18;;;;;;;17.75;65.25;102328.34;5093163;28;20451;-72
2022/07/12 02:16:37;;;;;;;6.47;4.40;;;;;;;17.69;65.09;102321.81;5100984;28;20127;-72
2022/07/12 02:19:03;;;;;;;4.70;4.30;;;;;;;17.65;64.83;102318.69;5094519;28;20051;-70
2022/07/12 02:21:28;;;;;;;4.20;3.80;;;;;;;17.65;64.99;102313.06;5094804;28;20027;-70
2022/07/12 02:23:53;;;;;;;5.50;4.00;;;;;;;17.64;65.01;102307.72;5083824;28;20025;-70
2022/07/12 02:26:19;;;;;;;5.70;4.18;;;;;;;17.62;64.83;102309.94;5079457;28;20081;-70
2022/07/12 02:28:44;;;;;;;5.05;4.18;;;;;;;17.61;64.87;102311.06;5092824;28;20489;-70
2022/07/12 02:31:09;;;;;;;4.80;4.30;;;;;;;17.57;64.79;102313.56;5089432;28;20121;-70
2022/07/12 02:33:35;;;;;;;5.07;4.30;;;;;;;17.53;65.04;102319.97;5077069;28;20539;-70
2022/07/12 02:36:01;;;;;;;6.68;3.85;;;;;;;17.46;64.59;102322.13;5076782;28;20170;-70
2022/07/12 02:38:27;;;;;;;4.38;3.95;;;;;;;17.46;64.50;102320.16;5085509;28;20475;-70
2022/07/12 02:40:55;;;;;;;4.40;4.10;;;;;;;17.45;64.72;102318.47;5082334;28;20733;-70
2022/07/12 02:43:28;;;;;;;4.72;4.22;;;;;;;17.43;64.75;102327.16;5091337;28;20051;-70
2022/07/12 02:45:56;;;;;;;4.75;4.30;;;;;;;17.39;64.55;102322.31;5077746;28;20538;-71
2022/07/12 02:48:22;;;;;;;5.55;4.30;;;;;;;17.37;64.71;102325.41;5079052;28;20032;-70
2022/07/12 02:50:47;;;;;;;6.07;4.40;;;;;;;17.31;64.89;102326.44;5078097;28;20035;-70
2022/07/12 02:53:13;;;;;;;7.03;4.68;;;;;;;17.31;64.76;102320.00;5080133;28;20027;-70
2022/07/12 02:55:38;;;;;;;5.43;4.65;;;;;;;17.31;64.49;102322.78;5078209;28;20751;-70
2022/07/12 02:58:07;;;;;;;6.53;4.70;;;;;;;17.22;64.91;102322.41;5082899;28;20075;-70
2022/07/12 03:00:34;;;;;;;5.88;4.57;;;;;;;17.18;65.00;102322.09;5087735;28;20055;-70
2022/07/12 03:03:00;;;;;;;5.43;4.55;;;;;;;17.18;64.72;102322.09;5097608;28;20441;-70
2022/07/12 03:05:25;;;;;;;5.60;4.75;;;;;;;17.20;64.78;102319.00;5074959;28;20024;-70
2022/07/12 03:07:50;;;;;;;5.57;4.70;;;;;;;17.18;65.08;102322.09;5087584;28;20547;-70
2022/07/12 03:10:16;;;;;;;6.47;4.90;;;;;;;17.18;64.73;102318.44;5082882;28;20039;-70
2022/07/12 03:12:41;;;;;;;9.18;4.40;;;;;;;17.12;64.75;102313.88;5086185;28;20043;-70
2022/07/12 03:15:07;;;;;;;5.90;4.78;;;;;;;17.11;64.67;102315.81;5090756;28;20411;-70
2022/07/12 03:17:33;;;;;;;6.72;5.05;;;;;;;17.13;64.71;102321.16;5085317;28;20024;-70
2022/07/12 03:19:58;;;;;;;7.30;4.95;;;;;;;17.07;64.63;102317.47;5086932;28;20478;-70
2022/07/12 03:22:24;;;;;;;9.65;5.25;;;;;;;17.06;64.92;102326.16;5082229;28;20024;-71
2022/07/12 03:24:49;;;;;;;9.18;4.90;;;;;;;17.04;64.81;102325.53;5076482;28;20031;-70
2022/07/12 03:27:15;;;;;;;6.47;5.13;;;;;;;17.03;64.39;102326.66;5081197;28;20028;-70
2022/07/12 03:29:40;;;;;;;7.55;4.93;;;;;;;17.05;64.76;102321.63;5083181;28;20029;-70
2022/07/12 03:32:06;;;;;;;6.25;5.10;;;;;;;17.04;64.59;102319.94;5073827;28;20073;-71
2022/07/12 03:34:32;;;;;;;8.80;5.32;;;;;;;16.96;64.78;102315.63;5092178;28;20077;-71
2022/07/12 03:36:58;;;;;;;10.05;5.03;;;;;;;16.92;64.94;102320.91;5084402;28;20036;-71
2022/07/12 03:39:23;;;;;;;5.20;4.70;;;;;;;16.92;65.06;102320.91;5081625;28;20025;-71
2022/07/12 03:41:49;;;;;;;7.18;5.10;;;;;;;16.96;64.96;102324.03;5079107;28;20035;-70
2022/07/12 03:44:14;;;;;;;6.88;5.32;;;;;;;16.93;64.62;102335.78;5073471;28;20037;-71
2022/07/12 03:46:39;;;;;;;9.43;5.55;;;;;;;16.86;64.90;102332.34;5080814;28;20471;-70
2022/07/12 03:49:05;;;;;;;8.88;5.28;;;;;;;16.87;65.00;102332.06;5080258;28;20353;-71
2022/07/12 03:51:30;;;;;;;8.02;5.28;;;;;;;16.87;65.24;102326.47;5086917;28;20569;-71
2022/07/12 03:53:55;;;;;;;6.07;4.95;;;;;;;16.85;65.41;102331.47;5104865;28;20036;-71
2022/07/12 03:59:04;;;;;;;10.98;5.60;;;;;;;16.81;65.64;102327.47;5078330;28;20176;-70
2022/07/12 04:01:31;;;;;;;6.13;5.50;;;;;;;16.78;65.31;102332.75;5085547;28;20499;-71
2022/07/12 04:03:56;;;;;;;7.93;5.60;;;;;;;16.82;65.43;102323.59;5085668;28;20028;-71
2022/07/12 04:06:21;;;;;;;9.27;5.68;;;;;;;16.81;65.30;102324.69;5089449;28;20391;-71
2022/07/12 04:08:47;;;;;;;8.15;6.25;;;;;;;16.77;65.88;102319.84;5078675;28;20125;-71
2022/07/12 04:11:12;;;;;;;11.35;6.05;;;;;;;16.82;65.67;102314.31;5083895;28;20064;-71
2022/07/12 04:13:38;;;;;;;8.10;5.97;;;;;;;16.78;65.79;102311.19;5082859;28;20032;-71
2022/07/12 04:16:03;;;;;;;10.02;5.88;;;;;;;16.85;65.74;102314.63;5085418;28;20109;-71
2022/07/12 04:18:29;;;;;;;9.48;6.63;;;;;;;16.85;66.10;102316.59;5085663;28;20475;-71
2022/07/12 04:20:54;;;;;;;8.95;5.82;;;;;;;16.83;66.06;102328.09;5086275;28;20020;-70
2022/07/12 04:23:19;;;;;;;7.28;6.30;;;;;;;16.81;66.08;102332.25;5080773;28;20099;-71
2022/07/12 04:25:45;;;;;;;6.97;5.95;;;;;;;16.85;66.11;102331.47;5083183;28;20033;-71
2022/07/12 04:28:10;;;;;;;7.03;6.32;;;;;;;16.81;66.35;102335.91;5090416;28;20032;-71
2022/07/12 04:30:35;;;;;;;8.68;6.50;;;;;;;16.85;66.50;102337.06;5081024;28;20391;-71
2022/07/12 04:33:00;;;;;;;10.20;7.13;;;;;;;16.84;66.50;102332.56;5090471;28;20055;-71
2022/07/12 04:35:26;;;;;;;8.43;6.80;;;;;;;16.82;66.82;102337.63;5086617;28;20069;-71
2022/07/12 04:37:51;;;;;;;7.60;6.80;;;;;;;16.87;66.51;102340.47;5079756;28;20036;-71
2022/07/12 04:40:16;;;;;;;9.52;6.38;;;;;;;16.91;66.83;102347.28;5089259;28;20043;-71
2022/07/12 04:42:41;;;;;;;6.95;6.32;;;;;;;16.90;66.99;102344.72;5090325;28;20098;-71
2022/07/12 04:45:07;;;;;;;9.93;7.03;;;;;;;16.91;67.11;102338.84;5088611;28;20040;-71
2022/07/12 04:47:38;;;;;;;7.50;6.80;;;;;;;16.89;67.39;102349.47;5073891;28;20040;-71
2022/07/12 04:50:06;;;;;;;8.13;7.05;;;;;;;16.96;67.30;102342.84;5092370;28;20452;-71
2022/07/12 04:52:32;;;;;;;9.52;7.13;;;;;;;17.00;67.32;102344.00;5089729;28;20032;-71
2022/07/12 04:54:57;;;;;;;8.10;6.97;;;;;;;17.02;67.42;102344.63;5080881;28;20445;-71
2022/07/12 04:57:23;;;;;;;8.73;7.82;;;;;;;17.03;67.98;102344.34;5088377;28;20467;-71
2022/07/12 04:59:48;;;;;;;8.48;7.20;;;;;;;17.07;68.03;102347.47;5092327;28;20024;-71
2022/07/12 05:02:13;;;;;;;7.32;6.63;;;;;;;17.13;67.78;102329.59;5083960;28;20467;-70
2022/07/12 05:04:39;;;;;;;12.93;7.78;;;;;;;17.15;67.71;102339.44;5089794;28;20027;-71
2022/07/12 05:07:04;;;;;;;10.55;7.88;;;;;;;17.18;67.93;102338.94;5106511;28;20456;-71
2022/07/12 05:09:29;;;;;;;8.38;7.68;;;;;;;17.20;68.65;102341.47;5090734;28;20125;-72
2022/07/12 05:11:54;;;;;;;8.65;7.85;;;;;;;17.29;68.00;102339.91;5090118;28;20059;-71
2022/07/12 05:14:20;;;;;;;8.65;7.88;;;;;;;17.32;68.56;102344.97;5084457;28;20379;-70
2022/07/12 05:16:45;;;;;;;3.72;3.42;;;;;;;17.59;68.92;102345.00;5087721;28;20071;-68
2022/07/12 05:19:10;;;;;;;4.97;3.92;;;;;;;17.79;69.19;102350.03;5081332;28;20029;-69
2022/07/12 05:21:36;;;;;;;4.65;3.88;;;;;;;17.93;68.48;102356.06;5082470;28;20475;-68
2022/07/12 05:24:03;;;;;;;5.75;4.63;;;;;;;18.05;68.54;102361.53;5082189;28;20039;-67
2022/07/12 05:26:29;;;;;;;6.43;4.97;;;;;;;18.19;68.27;102357.13;5081513;28;20020;-67
2022/07/12 05:28:55;;;;;;;4.82;4.07;;;;;;;18.39;67.51;102362.06;5090638;28;20780;-67
2022/07/12 05:31:20;;;;;;;5.15;4.65;;;;;;;18.54;67.39;102366.97;5076902;28;20016;-69
2022/07/12 05:33:46;;;;;;;5.22;4.72;;;;;;;18.66;66.95;102370.44;5082591;28;20036;-67
2022/07/12 05:36:11;;;;;;;5.95;5.35;;;;;;;18.76;66.99;102370.53;5080972;28;20074;-68
2022/07/12 05:38:36;;;;;;;5.70;5.20;;;;;;;18.91;66.55;102385.84;5081735;28;20032;-67
2022/07/12 05:41:03;;;;;;;6.43;5.53;;;;;;;18.97;66.43;102385.56;5084840;28;20441;-68
2022/07/12 05:43:28;;;;;;;5.85;5.32;;;;;;;19.05;66.58;102382.22;5077166;28;20057;-66
2022/07/12 05:45:53;;;;;;;6.60;5.32;;;;;;;19.15;66.67;102389.91;5077764;28;20024;-66
2022/07/12 05:48:19;;;;;;;6.15;5.55;;;;;;;19.21;66.73;102388.78;5083680;28;20483;-66
2022/07/12 05:50:44;;;;;;;6.65;5.13;;;;;;;19.33;66.37;102397.84;5078482;28;20032;-66
2022/07/12 05:53:21;;;;;;;6.57;5.57;;;;;;;19.37;66.37;102396.22;5084350;28;20039;-66
2022/07/12 05:55:47;;;;;;;5.88;5.10;;;;;;;19.52;65.85;102403.00;5097069;28;20816;-66
2022/07/12 05:58:13;;;;;;;8.48;4.93;;;;;;;19.60;65.85;102410.91;5094995;28;20028;-66
2022/07/12 06:00:38;;;;;;;6.30;5.70;;;;;;;19.57;65.35;102414.28;5097451;28;20128;-67
2022/07/12 06:03:03;;;;;;;5.10;4.57;;;;;;;19.65;65.24;102411.00;5080339;28;20036;-68
2022/07/12 06:05:29;;;;;;;7.15;4.20;;;;;;;19.67;65.16;102411.53;5089481;28;20023;-68
2022/07/12 06:07:54;;;;;;;7.70;4.40;;;;;;;19.71;65.07;102414.66;5103748;28;20372;-68
2022/07/12 06:10:19;;;;;;;5.43;4.63;;;;;;;19.70;64.98;102411.00;5094145;28;20559;-68
2022/07/12 06:12:45;;;;;;;5.13;4.25;;;;;;;19.71;65.00;102414.66;5082955;28;20034;-68
2022/07/12 06:15:10;;;;;;;6.25;4.80;;;;;;;19.73;65.32;102416.09;5088208;28;20024;-68
2022/07/12 06:17:35;;;;;;;5.68;4.60;;;;;;;19.71;64.96;102414.66;5101220;28;20429;-68
2022/07/12 06:20:02;;;;;;;6.43;5.03;;;;;;;19.75;64.96;102411.00;5103381;28;20452;-68
2022/07/12 06:22:27;;;;;;;8.07;5.28;;;;;;;19.78;65.07;102415.25;5083722;28;20024;-68
2022/07/12 06:24:52;;;;;;;7.95;5.18;;;;;;;19.78;65.17;102415.25;5081419;28;20028;-68
2022/07/12 06:27:18;;;;;;;9.63;5.18;;;;;;;19.81;65.08;102409.91;5084717;28;20024;-68
2022/07/12 06:29:47;;;;;;;10.52;4.30;;;;;;;19.92;64.65;102409.91;5090722;28;20770;-68
2022/07/12 06:32:16;;;;;;;6.38;4.88;;;;;;;19.93;64.99;102406.84;5089928;28;20024;-68
2022/07/12 06:34:41;;;;;;;7.15;5.13;;;;;;;19.92;65.01;102410.75;5092558;28;20388;-68
2022/07/12 06:37:08;;;;;;;7.53;5.35;;;;;;;19.95;64.92;102418.66;5091800;28;20031;-68
2022/07/12 06:39:34;;;;;;;7.50;5.30;;;;;;;19.93;64.72;102414.44;5075201;28;20103;-68
2022/07/12 06:41:59;;;;;;;7.40;5.47;;;;;;;19.98;64.52;102420.94;5082784;28;20116;-68
2022/07/12 06:44:25;;;;;;;6.43;5.00;;;;;;;20.03;64.48;102411.63;5081673;28;20046;-68
2022/07/12 06:46:50;;;;;;;5.03;4.35;;;;;;;20.12;64.38;102412.75;5079266;28;20020;-68
2022/07/12 06:49:15;;;;;;;9.68;7.93;;;;;;;20.04;64.58;102414.19;5085771;28;20020;-68
2022/07/12 06:51:40;;;;;;;6.50;4.90;;;;;;;20.12;64.23;102418.41;5083620;28;20029;-68
2022/07/12 06:54:06;;;;;;;8.13;4.93;;;;;;;20.14;63.63;102418.97;5086282;28;20017;-68
2022/07/12 06:56:31;;;;;;;8.65;6.00;;;;;;;20.18;64.30;102420.09;5089386;28;20016;-68
2022/07/12 06:58:57;;;;;;;6.00;5.28;;;;;;;20.26;64.10;102425.19;5090203;28;20023;-68
2022/07/12 07:01:22;;;;;;;6.00;5.40;;;;;;;20.28;64.02;102413.66;5101132;28;20035;-68
2022/07/12 07:03:47;;;;;;;8.30;5.47;;;;;;;20.28;63.89;102419.28;5082814;28;20035;-68
2022/07/12 07:06:12;;;;;;;7.88;5.45;;;;;;;20.33;63.56;102417.31;5083155;28;20172;-69
2022/07/12 07:08:38;;;;;;;8.15;5.70;;;;;;;20.40;63.88;102416.19;5091023;28;20039;-68
2022/07/12 07:11:04;;;;;;;10.25;7.30;;;;;;;20.44;63.51;102417.31;5092486;28;20028;-69
2022/07/12 07:13:29;;;;;;;11.63;10.30;;;;;;;20.40;63.69;102414.22;5087541;28;20378;-68
2022/07/12 07:15:54;;;;;;;8.93;6.65;;;;;;;20.51;63.17;102423.53;5090334;28;20027;-68
2022/07/12 07:18:20;;;;;;;6.55;5.13;;;;;;;20.56;63.10;102418.75;5095022;28;20099;-68
2022/07/12 07:20:45;;;;;;;9.95;6.18;;;;;;;20.64;63.23;102423.00;5086497;28;20027;-68
2022/07/12 07:23:10;;;;;;;10.27;6.47;;;;;;;20.72;62.75;102425.22;5092244;28;20042;-68
2022/07/12 07:25:35;;;;;;;7.78;6.57;;;;;;;20.79;63.06;102422.13;5093332;28;20107;-68
2022/07/12 07:28:01;;;;;;;6.88;5.85;;;;;;;20.83;62.25;102418.44;5091966;28;20131;-68
2022/07/12 07:33:10;;;;;;;10.35;7.30;;;;;;;21.01;61.58;102421.78;5088909;28;20797;-68
2022/07/12 07:35:37;;;;;;;6.78;4.22;;;;;;;21.04;61.58;102415.59;5081524;28;20032;-68
2022/07/12 07:38:02;;;;;;;6.57;5.97;;;;;;;21.04;61.18;102424.06;5092195;28;20043;-68
2022/07/12 07:40:27;;;;;;;7.97;4.95;;;;;;;21.06;61.00;102411.34;5089533;28;20037;-68
2022/07/12 07:42:53;;;;;;;6.63;5.18;;;;;;;21.10;60.89;102408.78;5106596;28;20031;-68
2022/07/12 07:45:18;;;;;;;6.32;4.53;;;;;;;21.14;60.73;102414.69;5092891;28;20386;-66
2022/07/12 07:47:48;;;;;;;7.90;4.80;;;;;;;21.12;60.71;102412.16;5109527;28;20038;-66
2022/07/12 07:50:14;;;;;;;9.30;7.55;;;;;;;21.07;60.38;102415.03;5093943;28;20387;-66
2022/07/12 07:52:40;;;;;;;5.93;5.22;;;;;;;21.08;60.11;102411.06;5095826;28;20035;-66
2022/07/12 07:55:06;;;;;;;7.20;6.50;;;;;;;21.11;60.58;102412.47;5090939;28;20028;-66
2022/07/12 07:57:31;;;;;;;5.28;3.60;;;;;;;21.15;60.51;102403.13;5091201;28;20030;-66
2022/07/12 07:59:56;;;;;;;5.25;4.38;;;;;;;21.20;60.38;102414.41;5097022;28;20032;-66
2022/07/12 08:02:21;;;;;;;4.35;3.65;;;;;;;21.27;60.35;102408.47;5090810;28;20028;-66
2022/07/12 08:04:47;;;;;;;4.13;3.72;;;;;;;21.30;60.11;102403.09;5091058;28;20032;-66
2022/07/12 08:07:13;;;;;;;4.10;3.58;;;;;;;21.31;59.60;102410.41;5091471;28;20026;-66
2022/07/12 08:09:38;;;;;;;3.80;3.33;;;;;;;21.29;59.42;102411.81;5090686;28;20391;-66
2022/07/12 08:12:04;;;;;;;3.85;3.08;;;;;;;21.32;59.80;102414.09;5083258;28;20033;-66
2022/07/12 08:14:29;;;;;;;3.47;3.00;;;;;;;21.29;59.40;102411.81;5090524;28;20078;-66
2022/07/12 08:16:55;;;;;;;5.53;3.70;;;;;;;21.29;59.55;102409.00;5093073;28;20043;-67
2022/07/12 08:19:20;;;;;;;3.63;2.92;;;;;;;21.31;59.44;102416.06;5102557;28;20076;-66
2022/07/12 08:21:45;;;;;;;5.07;3.90;;;;;;;21.34;59.55;102409.03;5101521;28;20027;-66
2022/07/12 08:24:11;;;;;;;6.15;4.30;;;;;;;21.31;59.32;102418.88;5094513;28;20105;-66
2022/07/12 08:26:36;;;;;;;5.00;4.53;;;;;;;21.38;59.39;102417.75;5093972;28;20026;-66
2022/07/12 08:29:02;;;;;;;5.05;3.53;;;;;;;21.36;59.11;102409.56;5104009;28;20138;-66
2022/07/12 08:31:27;;;;;;;4.97;4.50;;;;;;;21.35;58.29;102412.69;5095764;28;20476;-66
2022/07/12 08:33:52;;;;;;;4.90;4.45;;;;;;;21.44;58.74;102423.09;5102624;28;20042;-66
2022/07/12 08:36:17;;;;;;;5.05;4.65;;;;;;;21.45;58.05;102421.13;5088844;28;20024;-68
2022/07/12 08:38:44;;;;;;;5.65;5.15;;;;;;;21.50;58.61;102423.94;5093188;28;20379;-68
2022/07/12 08:41:12;;;;;;;5.93;5.28;;;;;;;21.49;57.79;102427.88;5088185;28;20021;-69
2022/07/12 08:43:38;;;;;;;5.53;4.97;;;;;;;21.50;57.48;102421.97;5093375;28;20035;-68
2022/07/12 08:46:08;;;;;;;6.35;4.60;;;;;;;21.49;57.78;102425.91;5096377;28;20036;-67
2022/07/12 08:48:37;;;;;;;5.28;4.78;;;;;;;21.52;58.39;102427.31;5089740;28;20119;-67
2022/07/12 08:51:09;;;;;;;4.97;4.47;;;;;;;21.55;58.33;102438.03;5089139;28;20047;-71
2022/07/12 08:53:34;;;;;;;4.95;4.55;;;;;;;21.58;57.82;102439.44;5086448;28;20039;-70
2022/07/12 08:56:01;;;;;;;5.35;4.10;;;;;;;21.66;57.76;102434.03;5083784;28;20396;-70
2022/07/12 08:58:26;;;;;;;5.60;4.95;;;;;;;21.78;57.44;102440.19;5083312;28;20050;-71
2022/07/12 09:00:52;;;;;;;4.88;4.30;;;;;;;21.82;57.55;102437.63;5084563;28;20020;-71
2022/07/12 09:03:18;;;;;;;4.20;3.80;;;;;;;21.97;56.43;102433.88;5083307;28;20107;-72
2022/07/12 09:05:57;;;;;;;4.13;3.50;;;;;;;22.18;57.15;102438.28;5081387;28;20027;-69
2022/07/12 09:08:33;;;;;;;4.57;4.18;;;;;;;22.23;57.34;102431.75;5088293;28;20031;-70
2022/07/12 09:11:01;;;;;;;7.45;4.47;;;;;;;22.35;56.82;102434.19;5084284;28;20031;-73
2022/07/12 09:13:50;;;;;;;5.47;4.45;;;;;;;22.38;56.25;102437.28;5081430;28;20495;-71
2022/07/12 09:16:18;;;;;;;5.85;4.60;;;;;;;22.41;55.31;102433.03;5080002;28;20583;-70
2022/07/12 09:18:44;;;;;;;4.68;4.28;;;;;;;22.41;55.32;102433.03;5082754;28;20112;-72
2022/07/12 09:21:20;;;;;;;6.20;4.60;;;;;;;22.46;55.83;102428.16;5079632;28;20043;-72
2022/07/12 09:23:55;;;;;;;8.88;6.13;;;;;;;22.47;55.82;102424.19;5081802;28;20031;-72
2022/07/12 09:26:21;;;;;;;4.35;3.97;;;;;;;22.60;55.06;102425.50;5085427;28;20031;-71
2022/07/12 09:28:49;;;;;;;6.10;4.60;;;;;;;22.65;53.89;102425.47;5081058;28;20028;-71
2022/07/12 09:31:14;;;;;;;5.22;4.57;;;;;;;22.69;54.15;102422.88;5078592;28;20491;-72
2022/07/12 09:36:26;;;;;;;7.82;3.65;;;;;;;22.82;53.94;102413.69;5072936;28;20035;-71
2022/07/12 09:38:53;;;;;;;4.95;4.43;;;;;;;22.86;53.62;102414.78;5082319;28;20562;-70
2022/07/12 09:41:20;;;;;;;4.47;4.07;;;;;;;22.90;54.59;102418.69;5083117;28;20035;-71
2022/07/12 09:43:47;;;;;;;4.35;3.97;;;;;;;22.88;54.10;102415.34;5079062;28;20499;-71
2022/07/12 09:46:17;;;;;;;5.47;3.75;;;;;;;23.03;53.36;102417.19;5083077;28;20177;-70
2022/07/12 09:48:44;;;;;;;4.28;3.83;;;;;;;23.07;54.22;102420.25;5080293;28;20063;-71
2022/07/12 09:51:14;;;;;;;5.85;3.55;;;;;;;23.08;54.49;102413.47;5083163;28;20443;-73
2022/07/12 09:53:49;;;;;;;5.25;4.63;;;;;;;23.10;53.89;102412.00;5082035;28;20031;-72
2022/07/12 09:56:16;;;;;;;4.70;3.90;;;;;;;23.17;53.71;102417.31;5077117;28;20528;-72
2022/07/12 09:58:50;;;;;;;5.07;4.63;;;;;;;23.19;53.39;102415.88;5084148;28;20028;-72
2022/07/12 10:01:16;;;;;;;4.57;3.90;;;;;;;23.43;53.34;102409.38;5084068;28;20033;-73
2022/07/12 10:03:43;;;;;;;5.50;3.72;;;;;;;23.44;52.98;102405.38;5074973;28;20058;-73
2022/07/12 10:06:11;;;;;;;3.75;3.30;;;;;;;23.70;53.43;102406.75;5084624;28;20062;-73
2022/07/12 10:08:36;;;;;;;3.88;3.28;;;;;;;23.74;53.55;102409.84;5088110;28;20044;-72
2022/07/12 10:11:02;;;;;;;4.38;3.38;;;;;;;23.89;53.06;102403.06;5087483;28;20028;-73
2022/07/12 10:13:28;;;;;;;6.93;4.00;;;;;;;23.79;52.90;102401.25;5087410;28;20493;-72
2022/07/12 10:16:01;;;;;;;3.58;3.28;;;;;;;24.02;53.05;102398.66;5095552;28;20024;-71
2022/07/12 10:18:28;;;;;;;7.57;3.85;;;;;;;23.93;52.77;102398.47;5082164;28;20051;-72
2022/07/12 10:20:54;;;;;;;5.65;3.83;;;;;;;23.98;52.62;102392.75;5085252;28;20024;-72
2022/07/12 10:23:19;;;;;;;4.93;3.63;;;;;;;24.00;52.38;102384.75;5079525;28;20462;-73
2022/07/12 10:25:44;;;;;;;5.85;3.85;;;;;;;24.05;52.55;102398.00;5079901;28;20031;-73
2022/07/12 10:28:09;;;;;;;4.00;3.60;;;;;;;24.07;51.43;102388.06;5093496;28;20098;-72
2022/07/12 10:30:47;;;;;;;4.65;3.83;;;;;;;24.05;51.89;102387.53;5088155;28;20070;-73
2022/07/12 10:33:20;;;;;;;3.88;3.25;;;;;;;24.13;51.41;102389.69;5094765;28;20038;-74
2022/07/12 10:36:06;;;;;;;3.67;3.38;;;;;;;24.12;51.38;102387.97;5080073;28;20036;-73
2022/07/12 10:38:32;;;;;;;4.25;3.67;;;;;;;24.22;50.29;102390.66;5082551;28;20122;-74
2022/07/12 10:41:18;;;;;;;4.18;3.78;;;;;;;24.27;51.52;102381.22;5084714;28;20036;-72
2022/07/12 10:46:27;;;;;;;8.77;4.22;;;;;;;24.29;51.29;102380.88;5081189;28;20194;-72
2022/07/12 10:49:25;;;;;;;4.07;3.78;;;;;;;24.28;50.91;102390.56;5089697;28;20020;-71
2022/07/12 10:52:09;;;;;;;5.32;4.90;;;;;;;24.21;50.77;102380.47;5080568;28;20052;-72
2022/07/12 10:54:34;;;;;;;5.65;4.13;;;;;;;24.22;49.75;102382.16;5084614;28;20133;-77
2022/07/12 10:57:00;;;;;;;6.03;4.88;;;;;;;24.25;49.44;102380.69;5084486;28;20044;-71
2022/07/12 10:59:26;;;;;;;6.45;4.43;;;;;;;24.32;49.76;102385.94;5082805;28;20473;-71
2022/07/12 11:01:55;;;;;;;4.30;3.90;;;;;;;24.44;48.36;102389.19;5086618;28;20114;-71
2022/07/12 11:04:20;;;;;;;3.92;3.53;;;;;;;24.49;48.14;102391.94;5097317;28;20460;-70
2022/07/12 11:06:46;;;;;;;4.88;3.40;;;;;;;24.58;48.06;102390.06;5104408;28;20059;-71
2022/07/12 11:09:15;;;;;;;5.50;3.53;;;;;;;24.60;47.80;102392.59;5088233;28;20079;-71
2022/07/12 11:11:48;;;;;;;3.67;3.38;;;;;;;24.64;47.47;102390.81;5086623;28;20419;-71
2022/07/12 11:14:24;;;;;;;;;;;;;;;24.62;49.01;102378.94;5082511;28;20039;-70
2022/07/12 11:16:55;;;;;;;4.78;3.35;;;;;;;24.65;47.70;102384.00;5080785;28;19923;-70
2022/07/12 11:19:23;;;;;;;8.48;4.05;;;;;;;24.60;47.17;102373.59;5089872;28;20407;-69
2022/07/12 11:21:54;;;;;;;5.55;3.35;;;;;;;24.65;47.63;102375.50;5084153;28;20031;-69
2022/07/12 11:24:22;;;;;;;3.42;3.13;;;;;;;24.81;47.78;102378.88;5078217;28;20024;-69
2022/07/12 11:26:48;;;;;;;4.13;3.38;;;;;;;24.84;47.42;102379.09;5090064;28;20032;-71
2022/07/12 11:29:13;;;;;;;5.10;3.85;;;;;;;24.90;47.32;102375.00;5091052;28;20472;-70
2022/07/12 11:31:39;;;;;;;4.13;3.28;;;;;;;24.96;47.68;102378.59;5086924;28;20083;-72